sensor_id;sensor_type;location;lat;lon;timestamp;P1;durP1;ratioP1;P2;durP2;ratioP2
72645;SDS011;60687;53.876;10.674;2023-09-19T00:08:18;3.80;;;1.05;;
72645;SDS011;60687;53.876;10.674;2023-09-19T00:18:26;4.77;;;1.30;;
72645;SDS011;60687;53.876;10.674;2023-09-19T00:28:33;7.53;;;1.17;;
72645;SDS011;60687;53.876;10.674;2023-09-19T00:38:37;4.78;;;1.20;;
72645;SDS011;60687;53.876;10.674;2023-09-19T00:48:40;4.67;;;1.23;;
72645;SDS011;60687;53.876;10.674;2023-09-19T00:58:47;6.03;;;1.47;;
72645;SDS011;60687;53.876;10.674;2023-09-19T01:08:49;6.05;;;1.85;;
72645;SDS011;60687;53.876;10.674;2023-09-19T01:18:55;8.00;;;1.83;;
72645;SDS011;60687;53.876;10.674;2023-09-19T01:29:17;8.30;;;2.07;;
72645;SDS011;60687;53.876;10.674;2023-09-19T01:39:35;6.23;;;1.77;;
72645;SDS011;60687;53.876;10.674;2023-09-19T01:49:41;5.70;;;1.85;;
72645;SDS011;60687;53.876;10.674;2023-09-19T01:59:50;7.07;;;1.97;;
72645;SDS011;60687;53.876;10.674;2023-09-19T02:09:58;7.03;;;1.77;;
72645;SDS011;60687;53.876;10.674;2023-09-19T02:20:03;5.80;;;1.90;;
72645;SDS011;60687;53.876;10.674;2023-09-19T02:30:12;5.80;;;1.80;;
72645;SDS011;60687;53.876;10.674;2023-09-19T02:40:18;5.80;;;2.10;;
72645;SDS011;60687;53.876;10.674;2023-09-19T02:50:20;6.75;;;2.08;;
72645;SDS011;60687;53.876;10.674;2023-09-19T03:00:25;5.88;;;1.90;;
72645;SDS011;60687;53.876;10.674;2023-09-19T03:10:28;5.57;;;1.93;;
72645;SDS011;60687;53.876;10.674;2023-09-19T03:20:34;5.80;;;1.80;;
72645;SDS011;60687;53.876;10.674;2023-09-19T03:30:36;6.68;;;1.60;;
72645;SDS011;60687;53.876;10.674;2023-09-19T03:40:41;6.30;;;2.07;;
72645;SDS011;60687;53.876;10.674;2023-09-19T03:50:46;6.47;;;1.63;;
72645;SDS011;60687;53.876;10.674;2023-09-19T04:00:49;7.22;;;1.92;;
72645;SDS011;60687;53.876;10.674;2023-09-19T04:10:52;5.97;;;1.70;;
72645;SDS011;60687;53.876;10.674;2023-09-19T04:20:56;6.87;;;2.10;;
72645;SDS011;60687;53.876;10.674;2023-09-19T04:30:59;6.97;;;1.67;;
72645;SDS011;60687;53.876;10.674;2023-09-19T04:41:03;8.13;;;1.60;;
72645;SDS011;60687;53.876;10.674;2023-09-19T04:51:06;7.63;;;1.40;;
72645;SDS011;60687;53.876;10.674;2023-09-19T05:01:09;6.83;;;1.37;;
72645;SDS011;60687;53.876;10.674;2023-09-19T05:11:13;5.88;;;1.52;;
72645;SDS011;60687;53.876;10.674;2023-09-19T05:21:17;7.63;;;1.80;;
72645;SDS011;60687;53.876;10.674;2023-09-19T05:31:19;9.03;;;1.63;;
72645;SDS011;60687;53.876;10.674;2023-09-19T05:41:23;7.85;;;2.00;;
72645;SDS011;60687;53.876;10.674;2023-09-19T05:51:26;10.27;;;1.63;;
72645;SDS011;60687;53.876;10.674;2023-09-19T06:01:30;7.03;;;1.57;;
72645;SDS011;60687;53.876;10.674;2023-09-19T06:11:35;9.20;;;1.90;;
72645;SDS011;60687;53.876;10.674;2023-09-19T06:21:39;6.68;;;1.75;;
72645;SDS011;60687;53.876;10.674;2023-09-19T06:31:41;7.47;;;1.33;;
72645;SDS011;60687;53.876;10.674;2023-09-19T06:41:46;5.67;;;1.23;;
72645;SDS011;60687;53.876;10.674;2023-09-19T06:51:49;5.38;;;1.27;;
72645;SDS011;60687;53.876;10.674;2023-09-19T07:01:52;6.10;;;1.37;;
72645;SDS011;60687;53.876;10.674;2023-09-19T07:11:55;7.47;;;1.43;;
72645;SDS011;60687;53.876;10.674;2023-09-19T07:21:59;6.78;;;1.42;;
72645;SDS011;60687;53.876;10.674;2023-09-19T07:32:03;7.17;;;1.50;;
72645;SDS011;60687;53.876;10.674;2023-09-19T07:42:07;8.80;;;1.57;;
72645;SDS011;60687;53.876;10.674;2023-09-19T07:52:12;9.70;;;1.67;;
72645;SDS011;60687;53.876;10.674;2023-09-19T08:02:17;7.05;;;1.60;;
72645;SDS011;60687;53.876;10.674;2023-09-19T08:12:19;11.03;;;1.90;;
72645;SDS011;60687;53.876;10.674;2023-09-19T08:22:26;9.63;;;1.90;;
72645;SDS011;60687;53.876;10.674;2023-09-19T08:32:32;6.97;;;1.67;;
72645;SDS011;60687;53.876;10.674;2023-09-19T08:42:48;7.13;;;1.80;;
72645;SDS011;60687;53.876;10.674;2023-09-19T08:52:52;7.27;;;1.60;;
72645;SDS011;60687;53.876;10.674;2023-09-19T09:02:58;7.65;;;1.55;;
72645;SDS011;60687;53.876;10.674;2023-09-19T09:13:03;6.63;;;1.40;;
72645;SDS011;60687;53.876;10.674;2023-09-19T09:23:08;6.77;;;1.47;;
72645;SDS011;60687;53.876;10.674;2023-09-19T09:33:13;7.15;;;1.80;;
72645;SDS011;60687;53.876;10.674;2023-09-19T09:43:26;7.10;;;1.50;;
72645;SDS011;60687;53.876;10.674;2023-09-19T09:53:35;8.20;;;1.83;;
72645;SDS011;60687;53.876;10.674;2023-09-19T10:03:40;8.07;;;1.50;;
72645;SDS011;60687;53.876;10.674;2023-09-19T10:13:48;8.23;;;1.45;;
72645;SDS011;60687;53.876;10.674;2023-09-19T10:23:52;7.63;;;1.50;;
72645;SDS011;60687;53.876;10.674;2023-09-19T10:33:57;8.10;;;1.67;;
72645;SDS011;60687;53.876;10.674;2023-09-19T10:44:04;8.90;;;1.88;;
72645;SDS011;60687;53.876;10.674;2023-09-19T10:54:08;6.17;;;1.60;;
72645;SDS011;60687;53.876;10.674;2023-09-19T11:04:23;9.20;;;1.80;;
72645;SDS011;60687;53.876;10.674;2023-09-19T11:14:39;8.85;;;1.60;;
72645;SDS011;60687;53.876;10.674;2023-09-19T11:24:44;6.57;;;1.80;;
72645;SDS011;60687;53.876;10.674;2023-09-19T11:34:47;7.17;;;1.40;;
72645;SDS011;60687;53.876;10.674;2023-09-19T11:44:54;7.30;;;1.40;;
72645;SDS011;60687;53.876;10.674;2023-09-19T11:54:57;6.97;;;1.38;;
72645;SDS011;60687;53.876;10.674;2023-09-19T12:05:04;7.00;;;1.30;;
72645;SDS011;60687;53.876;10.674;2023-09-19T12:15:07;9.17;;;1.53;;
72645;SDS011;60687;53.876;10.674;2023-09-19T12:25:12;7.90;;;1.42;;
72645;SDS011;60687;53.876;10.674;2023-09-19T12:35:26;9.30;;;1.30;;
72645;SDS011;60687;53.876;10.674;2023-09-19T12:45:32;6.07;;;1.40;;
72645;SDS011;60687;53.876;10.674;2023-09-19T12:55:36;7.97;;;1.70;;
72645;SDS011;60687;53.876;10.674;2023-09-19T13:05:53;9.60;;;1.60;;
72645;SDS011;60687;53.876;10.674;2023-09-19T13:15:57;8.70;;;1.57;;
72645;SDS011;60687;53.876;10.674;2023-09-19T13:26:01;6.00;;;1.63;;
72645;SDS011;60687;53.876;10.674;2023-09-19T13:36:05;7.75;;;1.55;;
72645;SDS011;60687;53.876;10.674;2023-09-19T13:46:09;7.30;;;1.57;;
72645;SDS011;60687;53.876;10.674;2023-09-19T13:56:17;7.43;;;1.90;;
72645;SDS011;60687;53.876;10.674;2023-09-19T14:06:20;7.63;;;2.03;;
72645;SDS011;60687;53.876;10.674;2023-09-19T14:16:23;9.20;;;1.40;;
72645;SDS011;60687;53.876;10.674;2023-09-19T14:26:27;6.97;;;1.67;;
72645;SDS011;60687;53.876;10.674;2023-09-19T14:36:29;7.10;;;1.77;;
72645;SDS011;60687;53.876;10.674;2023-09-19T14:46:35;8.17;;;1.80;;
72645;SDS011;60687;53.876;10.674;2023-09-19T14:56:37;7.97;;;1.73;;
72645;SDS011;60687;53.876;10.674;2023-09-19T15:06:41;10.02;;;1.80;;
72645;SDS011;60687;53.876;10.674;2023-09-19T15:16:44;8.90;;;1.83;;
72645;SDS011;60687;53.876;10.674;2023-09-19T15:26:47;7.87;;;1.63;;
72645;SDS011;60687;53.876;10.674;2023-09-19T15:36:51;6.73;;;1.40;;
72645;SDS011;60687;53.876;10.674;2023-09-19T15:46:55;7.70;;;1.50;;
72645;SDS011;60687;53.876;10.674;2023-09-19T15:56:57;7.20;;;1.73;;
72645;SDS011;60687;53.876;10.674;2023-09-19T16:07:03;6.67;;;1.60;;
72645;SDS011;60687;53.876;10.674;2023-09-19T16:17:05;6.43;;;1.42;;
72645;SDS011;60687;53.876;10.674;2023-09-19T16:27:10;9.03;;;1.90;;
72645;SDS011;60687;53.876;10.674;2023-09-19T16:37:12;8.03;;;2.07;;
72645;SDS011;60687;53.876;10.674;2023-09-19T16:47:17;8.88;;;2.40;;
72645;SDS011;60687;53.876;10.674;2023-09-19T16:57:19;6.90;;;1.63;;
72645;SDS011;60687;53.876;10.674;2023-09-19T17:07:26;9.20;;;2.17;;
72645;SDS011;60687;53.876;10.674;2023-09-19T17:17:28;9.47;;;1.87;;
72645;SDS011;60687;53.876;10.674;2023-09-19T17:27:33;5.53;;;1.35;;
72645;SDS011;60687;53.876;10.674;2023-09-19T17:37:35;7.97;;;1.90;;
72645;SDS011;60687;53.876;10.674;2023-09-19T17:47:41;6.67;;;1.60;;
72645;SDS011;60687;53.876;10.674;2023-09-19T17:57:43;6.18;;;1.77;;
72645;SDS011;60687;53.876;10.674;2023-09-19T18:07:49;5.73;;;1.40;;
72645;SDS011;60687;53.876;10.674;2023-09-19T18:17:53;6.47;;;1.63;;
72645;SDS011;60687;53.876;10.674;2023-09-19T18:27:57;7.00;;;1.50;;
72645;SDS011;60687;53.876;10.674;2023-09-19T18:37:59;7.97;;;1.33;;
72645;SDS011;60687;53.876;10.674;2023-09-19T18:48:04;6.87;;;1.30;;
72645;SDS011;60687;53.876;10.674;2023-09-19T18:58:06;5.40;;;1.27;;
72645;SDS011;60687;53.876;10.674;2023-09-19T19:08:11;5.07;;;1.20;;
72645;SDS011;60687;53.876;10.674;2023-09-19T19:18:13;5.50;;;1.20;;
72645;SDS011;60687;53.876;10.674;2023-09-19T19:28:17;8.17;;;1.20;;
72645;SDS011;60687;53.876;10.674;2023-09-19T19:38:19;6.18;;;1.30;;
72645;SDS011;60687;53.876;10.674;2023-09-19T19:48:25;4.77;;;1.10;;
72645;SDS011;60687;53.876;10.674;2023-09-19T19:58:30;5.30;;;1.33;;
72645;SDS011;60687;53.876;10.674;2023-09-19T20:08:33;5.30;;;1.40;;
72645;SDS011;60687;53.876;10.674;2023-09-19T20:18:37;5.68;;;1.20;;
72645;SDS011;60687;53.876;10.674;2023-09-19T20:28:41;5.40;;;1.40;;
72645;SDS011;60687;53.876;10.674;2023-09-19T20:38:44;5.43;;;1.30;;
72645;SDS011;60687;53.876;10.674;2023-09-19T20:48:49;4.35;;;0.95;;
72645;SDS011;60687;53.876;10.674;2023-09-19T20:58:54;4.23;;;1.13;;
72645;SDS011;60687;53.876;10.674;2023-09-19T21:08:58;4.60;;;1.10;;
72645;SDS011;60687;53.876;10.674;2023-09-19T21:19:01;5.55;;;1.30;;
72645;SDS011;60687;53.876;10.674;2023-09-19T21:29:06;5.17;;;1.20;;
72645;SDS011;60687;53.876;10.674;2023-09-19T21:39:09;6.83;;;1.10;;
72645;SDS011;60687;53.876;10.674;2023-09-19T21:49:13;6.05;;;1.40;;
72645;SDS011;60687;53.876;10.674;2023-09-19T21:59:16;5.85;;;1.27;;
72645;SDS011;60687;53.876;10.674;2023-09-19T22:09:20;5.43;;;1.40;;
72645;SDS011;60687;53.876;10.674;2023-09-19T22:19:24;5.20;;;1.47;;
72645;SDS011;60687;53.876;10.674;2023-09-19T22:29:27;3.85;;;0.68;;
72645;SDS011;60687;53.876;10.674;2023-09-19T22:39:30;5.93;;;1.20;;
72645;SDS011;60687;53.876;10.674;2023-09-19T22:49:37;5.23;;;1.00;;
72645;SDS011;60687;53.876;10.674;2023-09-19T22:59:41;5.90;;;1.05;;
72645;SDS011;60687;53.876;10.674;2023-09-19T23:09:46;4.10;;;1.00;;
72645;SDS011;60687;53.876;10.674;2023-09-19T23:19:48;5.73;;;1.37;;
72645;SDS011;60687;53.876;10.674;2023-09-19T23:29:57;4.85;;;0.90;;
72645;SDS011;60687;53.876;10.674;2023-09-19T23:40:00;5.78;;;1.35;;
72645;SDS011;60687;53.876;10.674;2023-09-19T23:50:07;5.40;;;1.40;;
